Energy Champion — MJUZ7 — position and weather

sailwx.info

Track history (hours):
 
Tides and Currents Weather Stations Pressure Air Temp Water Temp Dewpoint Dewpoint Depression Visibility Wind Speed Wind Dir Waves Ship Positions

Energy Champion

Last reported at 2017-Feb-19 20:33 UTC. Time now 2017-Feb-20 08:58 UTC.
Position N 32°32' W 025°52'.

Length 228 m; draft 11.8 m.

Type: Tanker. MMSI: 235009420.

Date/timePositionNaut miles runAvg speedWind from/ knotsBaromVisibWave heightAir tempDewpointWater temp
2017-Feb-19 20:33N 32°32' W 025°52'1212.0
2017-Feb-19 19:33N 32°36' W 025°39'2512.2
2017-Feb-19 17:31N 32°44' W 025°11'1512.5
2017-Feb-19 16:19N 32°49' W 024°54'912.3
2017-Feb-19 15:34N 32°51' W 024°43'1712.3
2017-Feb-19 14:10N 32°55' W 024°23'3412.3
2017-Feb-19 11:26N 33°04' W 023°44'1212.4
2017-Feb-19 10:28N 33°07' W 023°30'1312.5
2017-Feb-19 09:27N 33°10' W 023°16'1312.2
2017-Feb-19 08:24N 33°13' W 023°01'1012.0
2017-Feb-19 07:33N 33°15' W 022°49'1212.0
2017-Feb-19 06:33N 33°18' W 022°35'1212.2
2017-Feb-19 05:33N 33°21' W 022°21'1212.2
2017-Feb-19 04:33N 33°24' W 022°07'1211.8
2017-Feb-19 03:32N 33°27' W 021°53'1311.8
2017-Feb-19 02:24N 33°30' W 021°38'  
2017-Feb-16 06:33N 35°59' W 005°31'9 9.2
2017-Feb-16 05:33N 36°06' W 005°24'3 3.5
2017-Feb-16 04:33N 36°05' W 005°20'  
2017-Feb-11 13:32N 37°16' E 006°46'1 0.5
2017-Feb-11 12:31N 37°15' E 006°45'  
Track history (hours):
 
Tides and Currents Weather Stations Pressure Air Temp Water Temp Dewpoint Dewpoint Depression Visibility Wind Speed Wind Dir Waves Ship Positions

Energy Champion

Last reported at 2017-Feb-19 20:33 UTC. Time now 2017-Feb-20 08:58 UTC.
Position N 32°32' W 025°52'.

Length 228 m; draft 11.8 m.

Type: Tanker. MMSI: 235009420.

Date/timePositionNaut miles runAvg speedWind from/ knotsBaromVisibWave heightAir tempDewpointWater temp
2017-Feb-19 20:33N 32°32' W 025°52'1212.0
2017-Feb-19 19:33N 32°36' W 025°39'2512.2
2017-Feb-19 17:31N 32°44' W 025°11'1512.5
2017-Feb-19 16:19N 32°49' W 024°54'912.3
2017-Feb-19 15:34N 32°51' W 024°43'1712.3
2017-Feb-19 14:10N 32°55' W 024°23'3412.3
2017-Feb-19 11:26N 33°04' W 023°44'1212.4
2017-Feb-19 10:28N 33°07' W 023°30'1312.5
2017-Feb-19 09:27N 33°10' W 023°16'1312.2
2017-Feb-19 08:24N 33°13' W 023°01'1012.0
2017-Feb-19 07:33N 33°15' W 022°49'1212.0
2017-Feb-19 06:33N 33°18' W 022°35'1212.2
2017-Feb-19 05:33N 33°21' W 022°21'1212.2
2017-Feb-19 04:33N 33°24' W 022°07'1211.8
2017-Feb-19 03:32N 33°27' W 021°53'1311.8
2017-Feb-19 02:24N 33°30' W 021°38'  
2017-Feb-16 06:33N 35°59' W 005°31'9 9.2
2017-Feb-16 05:33N 36°06' W 005°24'3 3.5
2017-Feb-16 04:33N 36°05' W 005°20'  
2017-Feb-11 13:32N 37°16' E 006°46'1 0.5
2017-Feb-11 12:31N 37°15' E 006°45'  

Dump ship's entire track history